Time;durP1;ratioP1;P1;durP2;ratioP2;P2;SDS_P1;SDS_P2;PMS_P1;PMS_P2;Temp;Humidity;BMP_temperature;BMP_pressure;BME280_temperature;BME280_humidity;BME280_pressure;Samples;Min_cycle;Max_cycle;Signal;HPM_P1;HPM_P2
2023/10/16 00:01:09;;;;;;;3.17;1.95;;;8.00;99.90;;;;;;5035532;28;20201;-73
2023/10/16 00:03:38;;;;;;;2.67;1.58;;;8.00;99.90;;;;;;5036044;28;20211;-73
2023/10/16 00:06:07;;;;;;;2.55;1.50;;;7.90;99.90;;;;;;5036791;28;20476;-73
2023/10/16 00:08:34;;;;;;;3.35;1.75;;;7.90;99.90;;;;;;5018711;28;20185;-73
2023/10/16 00:11:03;;;;;;;4.00;1.38;;;7.90;99.90;;;;;;5035677;28;20239;-73
2023/10/16 00:13:37;;;;;;;3.92;2.03;;;7.90;99.90;;;;;;5036706;28;20182;-73
2023/10/16 00:16:03;;;;;;;3.33;1.30;;;7.90;99.90;;;;;;5036687;28;20186;-73
2023/10/16 00:18:35;;;;;;;2.53;1.48;;;7.80;99.90;;;;;;5032686;28;20244;-75
2023/10/16 00:21:05;;;;;;;3.25;1.60;;;7.80;99.90;;;;;;5033571;28;20296;-72
2023/10/16 00:23:37;;;;;;;3.03;1.77;;;7.80;99.90;;;;;;5032226;28;20640;-73
2023/10/16 00:26:07;;;;;;;4.10;1.80;;;7.80;99.90;;;;;;5033331;28;20182;-73
2023/10/16 00:28:34;;;;;;;2.40;1.55;;;7.80;99.90;;;;;;5015461;28;20288;-73
2023/10/16 00:31:00;;;;;;;2.28;1.30;;;7.80;99.90;;;;;;5032138;28;20216;-73
2023/10/16 00:33:27;;;;;;;3.08;1.40;;;7.80;99.90;;;;;;5015804;28;20178;-73
2023/10/16 00:35:54;;;;;;;6.35;1.92;;;7.80;99.90;;;;;;5032054;28;20280;-73
2023/10/16 00:38:22;;;;;;;5.73;1.63;;;7.70;99.90;;;;;;5032814;28;20304;-73
2023/10/16 00:43:34;;;;;;;3.75;1.67;;;7.70;99.90;;;;;;5031798;28;20169;-74
2023/10/16 00:46:10;;;;;;;3.03;1.73;;;7.70;99.90;;;;;;5015434;28;20223;-74
2023/10/16 00:48:39;;;;;;;2.80;1.58;;;7.60;99.90;;;;;;5014821;28;20212;-73
2023/10/16 00:51:09;;;;;;;2.25;1.48;;;7.60;99.90;;;;;;5015438;28;20181;-73
2023/10/16 00:53:39;;;;;;;2.92;2.00;;;7.60;99.90;;;;;;4998796;28;20178;-74
2023/10/16 00:56:13;;;;;;;3.30;2.47;;;7.60;99.90;;;;;;5030701;28;20547;-73
2023/10/16 00:58:42;;;;;;;3.70;2.17;;;7.60;99.90;;;;;;5015088;28;20606;-74
2023/10/16 01:01:12;;;;;;;3.25;2.17;;;7.60;99.90;;;;;;5031424;28;20197;-74
2023/10/16 01:03:40;;;;;;;4.07;2.05;;;7.60;99.90;;;;;;5015153;28;20303;-74
2023/10/16 01:06:15;;;;;;;3.22;2.65;;;7.60;99.90;;;;;;5014653;28;20173;-74
2023/10/16 01:08:49;;;;;;;4.30;2.00;;;7.50;99.90;;;;;;5024965;28;20535;-74
2023/10/16 01:11:31;;;;;;;3.85;2.30;;;7.50;99.90;;;;;;5032983;28;20595;-74
2023/10/16 01:13:57;;;;;;;4.67;2.57;;;7.50;99.90;;;;;;5031418;28;20675;-74
2023/10/16 01:16:23;;;;;;;3.60;2.60;;;7.50;99.90;;;;;;5032277;28;20581;-73
2023/10/16 01:18:49;;;;;;;4.50;2.42;;;7.50;99.90;;;;;;5031283;28;20170;-73
2023/10/16 01:21:15;;;;;;;4.90;2.07;;;7.50;99.90;;;;;;5030849;28;20227;-73
2023/10/16 01:23:44;;;;;;;2.77;2.17;;;7.50;99.90;;;;;;5031099;28;20567;-73
2023/10/16 01:26:13;;;;;;;6.43;2.63;;;7.50;99.90;;;;;;5014462;28;20212;-74
2023/10/16 01:28:39;;;;;;;8.77;2.72;;;7.60;99.90;;;;;;5032146;28;20741;-73
2023/10/16 01:31:05;;;;;;;7.50;2.30;;;7.50;99.90;;;;;;5030738;28;20177;-73
2023/10/16 01:33:30;;;;;;;3.43;2.30;;;7.50;99.90;;;;;;5014356;28;20181;-73
2023/10/16 01:35:56;;;;;;;3.93;2.67;;;7.50;99.90;;;;;;5014706;28;20272;-74
2023/10/16 01:38:24;;;;;;;4.30;2.50;;;7.50;99.90;;;;;;5013867;28;20202;-73
2023/10/16 01:41:25;;;;;;;3.13;2.40;;;7.50;99.90;;;;;;5030653;28;20202;-73
2023/10/16 01:43:44;;;;;;;5.13;2.25;;;7.50;99.90;;;;;;5028645;28;20186;-74
2023/10/16 01:46:12;;;;;;;3.72;2.45;;;7.50;99.90;;;;;;5030439;28;20173;-74
2023/10/16 01:48:42;;;;;;;4.22;2.58;;;7.50;99.90;;;;;;5030440;28;20205;-74
2023/10/16 01:51:11;;;;;;;2.30;2.10;;;7.60;99.90;;;;;;5014027;28;20181;-73
2023/10/16 01:53:39;;;;;;;2.50;2.20;;;7.50;99.90;;;;;;5014308;28;20177;-74
2023/10/16 01:56:12;;;;;;;5.97;3.42;;;7.60;99.90;;;;;;5031676;28;20174;-74
2023/10/16 01:58:41;;;;;;;3.83;2.88;;;7.60;99.90;;;;;;5013966;28;20241;-73
2023/10/16 02:01:11;;;;;;;3.75;2.88;;;7.60;99.90;;;;;;5013692;28;20209;-73
2023/10/16 02:03:38;;;;;;;3.08;2.47;;;7.60;99.90;;;;;;5014194;28;20170;-74
2023/10/16 02:06:04;;;;;;;5.57;3.38;;;7.60;99.90;;;;;;5030106;28;20172;-74
2023/10/16 02:08:30;;;;;;;5.60;3.03;;;7.60;99.90;;;;;;5030304;28;20202;-73
2023/10/16 02:10:57;;;;;;;4.90;2.63;;;7.60;99.90;;;;;;5030278;28;20191;-73
2023/10/16 02:13:23;;;;;;;9.27;3.08;;;7.60;99.90;;;;;;5030878;28;20178;-73
2023/10/16 02:15:49;;;;;;;4.13;3.43;;;7.60;99.90;;;;;;5030279;28;20235;-74
2023/10/16 02:18:23;;;;;;;4.33;2.60;;;7.60;99.90;;;;;;5030059;28;20620;-74
2023/10/16 02:20:50;;;;;;;6.43;3.35;;;7.50;99.90;;;;;;5030153;28;20205;-75
2023/10/16 02:23:17;;;;;;;3.83;2.70;;;7.50;99.90;;;;;;5030066;28;20173;-73
2023/10/16 02:25:45;;;;;;;3.63;2.70;;;7.50;99.90;;;;;;5030030;28;20178;-74
2023/10/16 02:28:13;;;;;;;4.28;3.47;;;7.50;99.90;;;;;;5013611;28;20237;-74
2023/10/16 02:34:26;;;;;;;4.38;2.42;;;7.50;99.90;;;;;;5026703;28;20185;-73
2023/10/16 02:36:54;;;;;;;3.25;2.75;;;7.50;99.90;;;;;;5029865;28;20225;-74
2023/10/16 02:39:35;;;;;;;3.70;2.42;;;7.50;99.90;;;;;;5030780;28;20188;-74
2023/10/16 02:42:14;;;;;;;4.18;2.50;;;7.50;99.90;;;;;;5045969;28;20209;-73
2023/10/16 02:44:42;;;;;;;5.93;3.45;;;7.50;99.90;;;;;;5014401;28;20203;-74
2023/10/16 02:47:25;;;;;;;3.40;2.33;;;7.50;99.90;;;;;;5046295;28;20280;-73
2023/10/16 02:49:51;;;;;;;3.55;2.88;;;7.40;99.90;;;;;;5029852;28;20268;-74
2023/10/16 02:52:18;;;;;;;3.92;2.53;;;7.40;99.90;;;;;;5012787;28;20269;-74
2023/10/16 02:54:46;;;;;;;4.05;3.35;;;7.40;99.90;;;;;;5029760;28;20177;-74
2023/10/16 02:57:12;;;;;;;4.25;2.80;;;7.40;99.90;;;;;;5030914;28;20590;-73
2023/10/16 02:59:38;;;;;;;4.32;3.10;;;7.30;99.90;;;;;;5029619;28;20174;-74
2023/10/16 03:02:13;;;;;;;3.65;2.95;;;7.30;99.90;;;;;;5028984;28;20295;-73
2023/10/16 03:04:40;;;;;;;3.83;3.08;;;7.30;99.90;;;;;;5030924;28;20176;-73
2023/10/16 03:07:07;;;;;;;3.67;2.95;;;7.30;99.90;;;;;;5013127;28;20193;-73
2023/10/16 03:09:33;;;;;;;4.97;3.50;;;7.30;99.90;;;;;;5029207;28;20182;-74
2023/10/16 03:12:08;;;;;;;8.82;3.80;;;7.30;99.90;;;;;;5029248;28;20181;-74
2023/10/16 03:14:51;;;;;;;3.90;3.17;;;7.30;99.90;;;;;;5030494;28;20189;-74
2023/10/16 03:17:25;;;;;;;5.97;3.25;;;7.20;99.90;;;;;;5029523;28;20201;-74
2023/10/16 03:19:57;;;;;;;3.78;3.00;;;7.30;99.90;;;;;;5029570;28;20259;-75
2023/10/16 03:22:23;;;;;;;5.00;2.65;;;7.30;99.90;;;;;;5012698;28;20201;-74
2023/10/16 03:24:51;;;;;;;4.25;3.40;;;7.30;99.90;;;;;;5029348;28;20177;-74
2023/10/16 03:27:29;;;;;;;3.65;3.10;;;7.30;99.90;;;;;;5012685;28;20297;-74
2023/10/16 03:29:56;;;;;;;3.92;2.85;;;7.30;99.90;;;;;;4998027;28;20273;-74
2023/10/16 03:32:28;;;;;;;5.05;3.40;;;7.20;99.90;;;;;;5012506;28;20203;-74
2023/10/16 03:34:57;;;;;;;4.18;3.10;;;7.20;99.90;;;;;;5019941;28;20204;-74
2023/10/16 03:37:24;;;;;;;4.70;3.05;;;7.20;99.90;;;;;;5029878;28;20671;-74
2023/10/16 03:39:56;;;;;;;4.82;3.10;;;7.20;99.90;;;;;;5030349;28;20189;-74
2023/10/16 03:42:23;;;;;;;7.32;2.90;;;7.20;99.90;;;;;;5030025;28;20213;-74
2023/10/16 03:44:49;;;;;;;6.97;4.80;;;7.20;99.90;;;;;;5045997;28;20651;-73
2023/10/16 03:47:14;;;;;;;2.85;2.40;;;7.20;99.90;;;;;;5028701;28;20236;-74
2023/10/16 03:49:41;;;;;;;4.47;3.77;;;7.10;99.90;;;;;;5029394;28;20166;-74
2023/10/16 03:52:08;;;;;;;8.40;3.20;;;7.10;99.90;;;;;;5028834;28;20205;-74
2023/10/16 03:54:39;;;;;;;3.50;3.17;;;7.10;99.90;;;;;;5032453;28;20181;-74
2023/10/16 03:57:11;;;;;;;8.13;3.60;;;7.10;99.90;;;;;;5031132;28;20193;-76
2023/10/16 03:59:42;;;;;;;3.67;3.30;;;7.10;99.90;;;;;;5031852;28;20201;-75
2023/10/16 04:02:16;;;;;;;4.53;2.70;;;7.10;99.90;;;;;;5032275;28;20220;-75
2023/10/16 04:04:41;;;;;;;4.35;2.78;;;7.10;99.90;;;;;;5033903;28;20173;-75
2023/10/16 04:07:10;;;;;;;2.50;2.13;;;7.20;99.90;;;;;;5033670;28;20682;-76
2023/10/16 04:09:40;;;;;;;3.50;2.60;;;7.10;99.90;;;;;;5032415;28;20192;-74
2023/10/16 04:12:07;;;;;;;3.83;2.78;;;7.10;99.90;;;;;;5015817;28;20189;-75
2023/10/16 04:14:45;;;;;;;3.60;2.70;;;7.10;99.90;;;;;;5033246;28;20223;-76
2023/10/16 04:17:13;;;;;;;3.17;2.55;;;7.10;99.90;;;;;;5032455;28;20209;-76
2023/10/16 04:19:59;;;;;;;2.90;1.77;;;7.10;99.90;;;;;;5033526;28;20196;-76
2023/10/16 04:22:25;;;;;;;3.58;2.35;;;7.10;99.90;;;;;;5031739;28;20618;-75
2023/10/16 04:24:54;;;;;;;3.37;2.67;;;7.10;99.90;;;;;;5035081;28;20186;-76
2023/10/16 04:29:49;;;;;;;4.93;2.60;;;7.10;99.90;;;;;;5032202;28;20705;-76
2023/10/16 04:35:04;;;;;;;3.60;2.78;;;7.00;99.90;;;;;;5032079;28;20184;-75
2023/10/16 04:37:31;;;;;;;3.35;2.80;;;7.00;99.90;;;;;;5032788;28;20255;-76
2023/10/16 04:50:29;;;;;;;4.72;2.70;;;7.00;99.90;;;;;;5033090;28;20212;-75
2023/10/16 05:04:48;;;;;;;3.53;2.50;;;6.90;99.90;;;;;;5031982;28;20192;-74
2023/10/16 05:19:53;;;;;;;4.60;2.50;;;7.00;99.90;;;;;;5040000;28;20188;-74
2023/10/16 06:15:20;;;;;;;7.20;5.47;;;6.40;99.90;;;;;;5033401;28;20169;-74
2023/10/16 06:17:46;;;;;;;6.97;4.45;;;6.40;99.90;;;;;;5028719;28;20197;-73
2023/10/16 06:20:19;;;;;;;7.55;5.07;;;6.40;99.90;;;;;;5031319;28;20181;-73
2023/10/16 06:22:51;;;;;;;7.55;4.60;;;6.50;99.90;;;;;;5031026;28;20204;-73
2023/10/16 06:25:19;;;;;;;5.95;4.68;;;6.50;99.90;;;;;;5031440;28;20177;-73
2023/10/16 06:27:46;;;;;;;7.47;4.45;;;6.50;99.90;;;;;;5013640;28;20193;-73
2023/10/16 06:30:18;;;;;;;5.05;4.55;;;6.50;99.90;;;;;;5029935;28;20240;-73
2023/10/16 06:32:44;;;;;;;9.90;5.45;;;6.60;99.90;;;;;;5029613;28;20201;-73
2023/10/16 06:35:16;;;;;;;5.60;4.63;;;6.60;99.90;;;;;;5029801;28;20269;-74
2023/10/16 06:37:51;;;;;;;5.95;4.72;;;6.60;99.90;;;;;;5013158;28;20729;-73
2023/10/16 06:40:24;;;;;;;5.20;3.90;;;6.60;99.90;;;;;;5013392;28;20177;-74
2023/10/16 06:42:54;;;;;;;8.23;5.65;;;6.70;99.90;;;;;;5030383;28;20213;-74
2023/10/16 06:45:40;;;;;;;6.63;4.90;;;6.70;99.90;;;;;;5029307;28;20174;-73
2023/10/16 06:48:08;;;;;;;6.40;4.50;;;6.80;99.90;;;;;;5029154;28;20262;-73
2023/10/16 06:50:40;;;;;;;7.15;4.88;;;6.80;99.90;;;;;;5029081;28;20666;-73
2023/10/16 06:53:05;;;;;;;5.05;4.53;;;6.90;99.90;;;;;;5012463;28;20179;-73
2023/10/16 06:55:31;;;;;;;6.80;4.90;;;6.90;99.90;;;;;;5029222;28;20178;-73
2023/10/16 06:57:57;;;;;;;7.23;5.10;;;7.00;99.90;;;;;;5029115;28;20631;-73
2023/10/16 07:00:23;;;;;;;6.83;4.83;;;7.10;99.90;;;;;;5029940;28;20654;-74
2023/10/16 07:02:57;;;;;;;6.75;5.47;;;7.20;99.90;;;;;;5030665;28;20181;-73
2023/10/16 07:05:23;;;;;;;7.38;6.15;;;7.20;99.90;;;;;;5029484;28;20282;-74
2023/10/16 07:07:49;;;;;;;8.05;6.30;;;7.30;99.90;;;;;;5029936;28;20291;-74
2023/10/16 07:10:15;;;;;;;6.93;6.07;;;7.40;99.90;;;;;;5029505;28;20174;-73
2023/10/16 07:13:00;;;;;;;6.93;6.23;;;7.40;99.90;;;;;;5010493;28;20634;-73
2023/10/16 07:15:30;;;;;;;6.28;5.00;;;7.50;99.90;;;;;;5030392;28;20612;-73
2023/10/16 07:17:56;;;;;;;7.57;6.18;;;7.60;99.90;;;;;;5045547;28;20296;-74
2023/10/16 07:20:28;;;;;;;7.72;6.50;;;7.70;99.90;;;;;;5029451;28;20173;-73
2023/10/16 07:22:59;;;;;;;6.90;5.15;;;7.80;99.90;;;;;;5030309;28;20174;-73
2023/10/16 07:25:54;;;;;;;9.20;6.32;;;7.90;99.90;;;;;;5029197;28;20173;-73
2023/10/16 07:28:15;;;;;;;7.68;6.47;;;8.00;99.90;;;;;;5031444;28;20284;-74
2023/10/16 07:30:42;;;;;;;7.82;7.00;;;8.00;99.90;;;;;;5032334;28;20170;-74
2023/10/16 07:33:15;;;;;;;7.70;6.32;;;8.00;99.90;;;;;;5034342;28;20189;-73
2023/10/16 07:35:45;;;;;;;8.52;7.63;;;8.10;99.90;;;;;;5034079;28;20335;-73
2023/10/16 07:38:12;;;;;;;8.18;6.63;;;8.10;99.90;;;;;;5033007;28;20231;-73
2023/10/16 07:40:37;;;;;;;9.15;6.43;;;8.20;99.90;;;;;;5048736;28;20204;-73
2023/10/16 07:43:05;;;;;;;7.20;6.50;;;8.20;99.90;;;;;;5034183;28;20201;-73
2023/10/16 07:45:32;;;;;;;6.88;6.18;;;8.20;99.90;;;;;;5032738;28;20715;-73
2023/10/16 07:48:20;;;;;;;7.18;6.47;;;8.20;99.90;;;;;;5015374;28;20308;-73
2023/10/16 07:50:50;;;;;;;7.38;5.10;;;8.20;99.90;;;;;;5031800;28;20221;-74
2023/10/16 07:53:19;;;;;;;7.47;5.70;;;8.30;99.90;;;;;;5016134;28;20169;-74
2023/10/16 07:55:50;;;;;;;7.10;6.40;;;8.40;99.90;;;;;;5033796;28;20174;-74
2023/10/16 07:58:23;;;;;;;5.22;4.68;;;8.40;99.90;;;;;;5032453;28;20555;-73
2023/10/16 08:01:17;;;;;;;6.78;5.68;;;8.40;99.90;;;;;;5014367;28;20190;-74
2023/10/16 08:03:46;;;;;;;6.57;4.45;;;8.50;99.90;;;;;;5032462;28;20181;-74
2023/10/16 08:06:17;;;;;;;6.70;5.30;;;8.60;99.90;;;;;;5032844;28;20185;-76
2023/10/16 08:08:49;;;;;;;8.35;6.70;;;8.80;99.90;;;;;;5032458;28;20198;-74
2023/10/16 08:11:19;;;;;;;6.72;6.10;;;8.90;99.90;;;;;;5015740;28;20344;-73
2023/10/16 08:13:52;;;;;;;6.45;5.70;;;9.10;99.90;;;;;;5033539;28;20189;-73
2023/10/16 08:16:21;;;;;;;8.43;6.55;;;9.20;99.90;;;;;;5033532;28;20540;-73
2023/10/16 08:18:48;;;;;;;9.00;6.00;;;9.40;99.90;;;;;;5015205;28;20193;-73
2023/10/16 08:21:24;;;;;;;8.77;5.90;;;9.50;99.90;;;;;;5032139;28;20542;-73
2023/10/16 08:23:54;;;;;;;8.15;6.95;;;9.80;99.90;;;;;;5032248;28;20185;-73
2023/10/16 08:26:29;;;;;;;7.05;5.82;;;10.20;99.90;;;;;;5033238;28;20174;-73
2023/10/16 08:31:45;;;;;;;8.63;7.22;;;10.60;99.90;;;;;;5031539;28;20204;-73
2023/10/16 08:34:13;;;;;;;7.25;6.53;;;10.70;99.90;;;;;;5031850;28;20635;-73
2023/10/16 08:36:38;;;;;;;6.88;5.93;;;10.80;99.90;;;;;;5031666;28;20193;-73
2023/10/16 08:39:16;;;;;;;6.63;6.03;;;10.90;99.90;;;;;;5014183;28;20178;-73
2023/10/16 08:42:01;;;;;;;6.50;5.90;;;10.90;99.90;;;;;;5032523;28;20594;-73
2023/10/16 08:44:28;;;;;;;7.03;6.40;;;10.90;99.90;;;;;;5048351;28;20185;-73
2023/10/16 08:49:26;;;;;;;6.22;5.63;;;11.20;99.90;;;;;;5032517;28;20647;-72
2023/10/16 08:51:54;;;;;;;7.43;6.47;;;11.30;99.90;;;;;;5031306;28;20292;-73
2023/10/16 08:57:07;;;;;;;7.90;7.10;;;11.90;99.90;;;;;;5032667;28;20639;-73
2023/10/16 08:59:34;;;;;;;10.33;7.87;;;12.30;99.90;;;;;;5032779;28;20630;-73
2023/10/16 09:02:01;;;;;;;8.23;4.70;;;12.30;99.90;;;;;;5032553;28;21048;-74
2023/10/16 09:04:27;;;;;;;7.17;6.47;;;12.30;99.90;;;;;;5014848;28;20611;-74
2023/10/16 09:06:54;;;;;;;8.83;7.20;;;12.70;99.90;;;;;;5032144;28;20702;-74
2023/10/16 09:09:20;;;;;;;7.57;6.77;;;12.70;99.90;;;;;;5028838;28;20628;-74
2023/10/16 09:11:47;;;;;;;7.97;7.00;;;12.70;99.90;;;;;;5030655;28;20678;-74
2023/10/16 09:14:17;;;;;;;9.60;7.13;;;12.60;99.90;;;;;;5031173;28;20620;-74
2023/10/16 09:16:51;;;;;;;8.83;7.37;;;12.40;99.90;;;;;;5030921;28;20588;-74
2023/10/16 09:19:18;;;;;;;9.00;7.70;;;12.40;99.90;;;;;;5032484;28;20598;-74
2023/10/16 09:21:44;;;;;;;9.80;7.97;;;12.50;99.90;;;;;;5015060;28;20604;-74
2023/10/16 09:24:14;;;;;;;10.90;9.07;;;12.60;99.90;;;;;;5032278;28;20585;-74
2023/10/16 09:26:46;;;;;;;14.20;6.97;;;12.60;99.90;;;;;;5030393;28;20616;-74
2023/10/16 09:29:15;;;;;;;9.90;7.70;;;12.80;99.90;;;;;;5032176;28;20607;-74
2023/10/16 09:31:44;;;;;;;6.27;5.50;;;13.10;99.90;;;;;;5030573;28;20631;-74
2023/10/16 09:34:12;;;;;;;8.33;5.80;;;13.20;99.90;;;;;;5031960;28;20638;-74
2023/10/16 09:36:38;;;;;;;7.47;6.63;;;13.50;99.90;;;;;;5030563;28;20581;-75
2023/10/16 09:39:16;;;;;;;9.37;6.43;;;13.70;99.90;;;;;;5031670;28;20609;-74
2023/10/16 09:41:46;;;;;;;7.30;5.17;;;14.20;99.90;;;;;;5030368;28;20801;-75
2023/10/16 09:44:23;;;;;;;7.93;5.60;;;14.90;99.90;;;;;;5030608;28;20600;-76
2023/10/16 09:46:52;;;;;;;9.77;6.70;;;15.70;99.90;;;;;;5031487;28;20987;-76
2023/10/16 09:49:24;;;;;;;7.20;6.33;;;16.40;99.90;;;;;;5031470;28;20653;-75
2023/10/16 09:51:57;;;;;;;5.93;5.33;;;17.10;99.90;;;;;;5029965;28;20636;-75
2023/10/16 09:54:27;;;;;;;6.53;5.67;;;17.60;99.90;;;;;;5030300;28;20596;-75
2023/10/16 09:56:59;;;;;;;7.90;5.33;;;18.40;99.90;;;;;;5028261;28;20645;-75
2023/10/16 09:59:33;;;;;;;7.30;6.10;;;18.90;99.90;;;;;;5030753;28;20593;-75
2023/10/16 10:02:08;;;;;;;7.57;5.80;;;19.20;99.90;;;;;;5031131;28;20599;-75
2023/10/16 10:04:35;;;;;;;7.03;5.30;;;19.60;99.90;;;;;;5029799;28;21089;-75
2023/10/16 10:07:13;;;;;;;12.00;7.53;;;19.90;99.90;;;;;;5028259;28;21217;-75
2023/10/16 10:09:44;;;;;;;9.43;5.97;;;20.00;99.90;;;;;;5030971;28;20573;-75
2023/10/16 10:12:22;;;;;;;8.47;6.37;;;20.00;99.90;;;;;;5030347;28;20631;-75
2023/10/16 10:15:07;;;;;;;7.23;5.33;;;20.00;99.90;;;;;;5013750;28;21025;-76
2023/10/16 10:17:34;;;;;;;8.50;6.23;;;20.10;99.90;;;;;;5031313;28;21081;-76
2023/10/16 10:20:08;;;;;;;6.93;5.07;;;20.20;99.90;;;;;;5031039;28;20599;-76
2023/10/16 10:22:35;;;;;;;7.93;5.33;;;20.10;99.90;;;;;;5030866;28;21176;-76
2023/10/16 10:25:16;;;;;;;8.33;5.17;;;19.80;99.90;;;;;;5013534;28;20620;-75
2023/10/16 10:27:43;;;;;;;10.17;5.50;;;19.70;99.90;;;;;;5029926;28;20627;-76
2023/10/16 10:30:25;;;;;;;6.53;4.60;;;19.70;99.90;;;;;;5029639;28;20936;-75
2023/10/16 10:33:30;;;;;;;6.10;4.17;;;19.60;99.90;;;;;;5030690;28;20646;-75
2023/10/16 10:36:29;;;;;;;5.60;4.57;;;19.70;99.90;;;;;;5030993;28;20608;-75
2023/10/16 10:39:24;;;;;;;7.03;4.80;;;19.80;99.90;;;;;;5030388;28;20577;-75
2023/10/16 10:41:55;;;;;;;5.50;4.87;;;19.90;99.90;;;;;;5030313;28;20592;-75
2023/10/16 10:44:39;;;;;;;7.17;5.60;;;20.10;99.90;;;;;;5029784;28;20919;-75
2023/10/16 10:47:24;;;;;;;8.40;4.43;;;20.10;99.90;;;;;;5029246;28;20682;-74
2023/10/16 10:49:59;;;;;;;8.93;6.17;;;20.10;99.90;;;;;;5029530;28;20650;-74
2023/10/16 10:52:30;;;;;;;9.87;5.10;;;20.10;99.90;;;;;;5028926;28;20648;-74
2023/10/16 10:55:14;;;;;;;6.87;5.47;;;20.00;99.90;;;;;;5029673;28;21026;-75
2023/10/16 10:57:47;;;;;;;5.67;4.40;;;19.80;99.90;;;;;;5029367;28;20709;-75
2023/10/16 11:00:43;;;;;;;6.97;4.90;;;19.90;99.90;;;;;;5029156;28;20591;-75
2023/10/16 11:03:22;;;;;;;6.33;4.60;;;20.00;99.90;;;;;;5030261;28;20940;-75
2023/10/16 11:05:49;;;;;;;6.43;4.63;;;20.10;99.90;;;;;;5029604;28;20713;-75
2023/10/16 11:10:44;;;;;;;8.00;5.10;;;20.20;99.90;;;;;;5030532;28;20588;-75
2023/10/16 11:13:12;;;;;;;5.90;4.87;;;20.30;99.90;;;;;;5030524;28;20184;-75
2023/10/16 11:15:52;;;;;;;8.23;5.57;;;20.20;99.90;;;;;;5030793;28;20594;-75
2023/10/16 11:18:18;;;;;;;9.33;5.83;;;20.10;99.90;;;;;;5030657;28;20646;-75
2023/10/16 11:20:46;;;;;;;15.17;6.40;;;19.90;99.90;;;;;;5029179;28;20612;-75
2023/10/16 11:23:12;;;;;;;11.47;8.33;;;19.80;99.90;;;;;;5030637;28;20588;-75
2023/10/16 11:25:44;;;;;;;8.80;5.77;;;19.80;99.90;;;;;;5029528;28;20671;-75
2023/10/16 11:28:20;;;;;;;11.40;6.97;;;19.80;99.90;;;;;;5030539;28;20612;-75
2023/10/16 11:30:47;;;;;;;7.83;7.03;;;19.60;99.90;;;;;;5030530;28;20946;-76
2023/10/16 11:33:13;;;;;;;7.43;6.57;;;19.40;99.90;;;;;;5030502;28;20584;-75
2023/10/16 11:35:47;;;;;;;9.03;6.80;;;19.10;99.90;;;;;;5030542;28;21130;-74
2023/10/16 11:38:19;;;;;;;8.60;6.80;;;18.80;99.90;;;;;;5012605;28;20193;-75
2023/10/16 11:40:47;;;;;;;7.23;6.53;;;18.80;99.90;;;;;;5012118;28;20718;-75
2023/10/16 11:43:18;;;;;;;9.20;6.10;;;18.70;99.90;;;;;;5030487;28;20646;-75
2023/10/16 11:45:45;;;;;;;7.97;5.83;;;18.70;99.90;;;;;;5029176;28;20603;-75
2023/10/16 11:51:06;;;;;;;9.17;7.03;;;18.70;99.90;;;;;;5028583;28;20600;-75
2023/10/16 11:53:34;;;;;;;8.00;6.47;;;18.60;99.90;;;;;;5030493;28;20620;-74
2023/10/16 11:56:01;;;;;;;12.40;6.63;;;18.30;99.90;;;;;;5012829;28;20584;-77
2023/10/16 11:58:27;;;;;;;7.50;6.70;;;18.20;99.90;;;;;;5028963;28;21099;-78
2023/10/16 12:00:57;;;;;;;8.53;6.43;;;18.10;99.90;;;;;;5012592;28;20603;-78
2023/10/16 12:03:26;;;;;;;7.23;6.20;;;18.10;99.90;;;;;;5030523;28;20592;-79
2023/10/16 12:05:55;;;;;;;8.33;5.50;;;18.00;99.90;;;;;;5030476;28;20596;-78
2023/10/16 12:08:21;;;;;;;9.60;6.03;;;17.90;99.90;;;;;;5030377;28;20620;-79
2023/10/16 12:10:50;;;;;;;12.83;7.00;;;17.70;99.90;;;;;;5029007;28;21016;-79
2023/10/16 12:13:16;;;;;;;15.70;6.17;;;17.40;99.90;;;;;;5030083;28;21064;-79
2023/10/16 12:15:45;;;;;;;9.33;7.07;;;17.20;99.90;;;;;;5032730;28;21161;-78
2023/10/16 12:18:12;;;;;;;8.40;6.57;;;17.00;99.90;;;;;;5032818;28;20703;-78
2023/10/16 12:20:39;;;;;;;8.83;6.37;;;16.80;99.90;;;;;;5033531;28;21057;-78
2023/10/16 12:23:05;;;;;;;6.43;5.80;;;16.50;99.90;;;;;;5016007;28;21275;-78
2023/10/16 12:25:32;;;;;;;8.80;6.77;;;16.30;99.90;;;;;;5034620;28;20602;-78
2023/10/16 12:27:58;;;;;;;8.50;5.70;;;16.00;99.90;;;;;;5031684;28;20628;-78
2023/10/16 12:30:27;;;;;;;6.33;5.00;;;15.80;99.90;;;;;;5032286;28;20718;-78
2023/10/16 12:32:54;;;;;;;9.63;5.07;;;15.70;99.90;;;;;;5031776;28;20628;-77
2023/10/16 12:35:22;;;;;;;9.00;6.00;;;15.50;99.90;;;;;;5032119;28;21219;-78
2023/10/16 12:37:55;;;;;;;8.07;7.10;;;15.50;99.90;;;;;;5031371;28;20966;-78
2023/10/16 12:40:24;;;;;;;6.83;6.00;;;15.30;99.90;;;;;;5032007;28;20590;-78
2023/10/16 12:42:53;;;;;;;7.77;5.60;;;15.20;99.90;;;;;;5031853;28;20589;-78
2023/10/16 12:45:26;;;;;;;9.07;5.70;;;15.00;99.90;;;;;;5024253;28;20696;-77
2023/10/16 12:47:53;;;;;;;8.97;5.20;;;14.90;99.90;;;;;;5033388;28;20632;-77
2023/10/16 12:50:23;;;;;;;7.00;5.40;;;14.80;99.90;;;;;;5031925;28;20595;-77
2023/10/16 12:52:58;;;;;;;7.03;4.97;;;14.70;99.90;;;;;;5031041;28;20638;-78
2023/10/16 12:55:24;;;;;;;7.07;5.53;;;14.70;99.90;;;;;;5024236;28;20592;-78
2023/10/16 12:57:54;;;;;;;5.07;3.67;;;14.70;99.90;;;;;;5031768;28;20601;-77
2023/10/16 13:00:21;;;;;;;6.70;5.23;;;14.70;99.90;;;;;;5031635;28;20580;-78
2023/10/16 13:02:51;;;;;;;6.87;4.40;;;14.80;99.90;;;;;;5032755;28;20604;-78
2023/10/16 13:05:24;;;;;;;9.97;6.77;;;14.80;99.90;;;;;;5032727;28;20584;-77
2023/10/16 13:07:50;;;;;;;6.87;4.30;;;14.80;99.90;;;;;;5031456;28;21020;-77
2023/10/16 13:10:20;;;;;;;8.10;5.73;;;14.90;99.90;;;;;;5032485;28;20650;-76
2023/10/16 13:12:46;;;;;;;5.80;5.00;;;15.00;99.90;;;;;;5032262;28;20624;-76
2023/10/16 13:15:24;;;;;;;7.20;5.20;;;15.00;99.90;;;;;;5032322;28;21008;-77
2023/10/16 13:17:53;;;;;;;9.80;5.17;;;15.10;99.90;;;;;;5032844;28;20608;-77
2023/10/16 13:20:19;;;;;;;8.93;4.07;;;15.10;99.90;;;;;;5031133;28;20580;-77
2023/10/16 13:22:55;;;;;;;6.23;4.20;;;15.20;99.90;;;;;;5032445;28;20599;-77
2023/10/16 13:25:22;;;;;;;6.97;3.60;;;15.30;99.90;;;;;;5031980;28;20209;-76
2023/10/16 13:27:48;;;;;;;7.60;5.80;;;15.30;99.90;;;;;;5032458;28;20678;-76
2023/10/16 13:30:16;;;;;;;5.03;3.83;;;15.30;99.90;;;;;;5031924;28;20655;-78
2023/10/16 13:32:46;;;;;;;5.97;3.67;;;15.30;99.90;;;;;;5030532;28;20624;-77
2023/10/16 13:35:16;;;;;;;8.00;5.13;;;15.20;99.90;;;;;;5030812;28;20592;-78
2023/10/16 13:37:45;;;;;;;6.00;4.20;;;15.30;99.90;;;;;;5030941;28;20664;-78
2023/10/16 13:40:20;;;;;;;5.27;3.57;;;15.30;99.90;;;;;;5015678;28;20595;-76
2023/10/16 13:42:49;;;;;;;3.80;3.10;;;15.30;99.90;;;;;;5031942;28;20814;-76
2023/10/16 13:45:16;;;;;;;5.60;3.43;;;15.20;99.90;;;;;;5032044;28;20600;-76
2023/10/16 13:47:43;;;;;;;8.03;3.80;;;15.10;99.90;;;;;;5031826;28;20632;-76
2023/10/16 13:50:13;;;;;;;4.30;3.50;;;15.00;99.90;;;;;;5032339;28;20662;-76
2023/10/16 13:52:43;;;;;;;5.37;3.73;;;15.00;99.90;;;;;;5031646;28;20624;-76
2023/10/16 13:55:13;;;;;;;4.93;3.60;;;14.90;99.90;;;;;;5032036;28;20589;-76
2023/10/16 13:57:42;;;;;;;7.83;3.40;;;14.80;99.90;;;;;;5030548;28;20648;-74
2023/10/16 14:05:44;;;;;;;4.33;2.70;;;14.70;99.90;;;;;;5013486;28;21365;-76
2023/10/16 14:08:10;;;;;;;5.80;2.60;;;14.70;99.90;;;;;;5031696;28;20604;-74
2023/10/16 14:10:46;;;;;;;4.60;2.27;;;14.80;99.90;;;;;;5031231;28;20591;-74
2023/10/16 14:13:26;;;;;;;4.37;2.20;;;14.70;99.90;;;;;;5030223;28;20595;-74
2023/10/16 14:15:57;;;;;;;2.60;1.50;;;14.80;99.90;;;;;;5031609;28;20596;-74
2023/10/16 14:18:26;;;;;;;2.80;1.63;;;14.80;99.90;;;;;;5029816;28;20957;-74
2023/10/16 14:20:53;;;;;;;7.17;1.30;;;14.90;99.90;;;;;;4997271;28;21198;-75
2023/10/16 14:23:24;;;;;;;3.70;1.40;;;14.90;99.90;;;;;;5029927;28;20688;-74
2023/10/16 14:25:57;;;;;;;5.40;1.73;;;14.90;99.90;;;;;;5030244;28;20588;-74
2023/10/16 14:28:28;;;;;;;3.27;1.70;;;15.00;99.90;;;;;;5029516;28;20724;-75
2023/10/16 14:30:56;;;;;;;4.47;2.00;;;15.00;99.90;;;;;;5030795;28;20636;-74
2023/10/16 14:33:28;;;;;;;3.73;1.57;;;15.00;99.90;;;;;;5029738;28;20608;-75
2023/10/16 14:35:58;;;;;;;2.60;1.70;;;15.00;99.90;;;;;;5031257;28;20995;-75
2023/10/16 14:38:25;;;;;;;6.43;2.10;;;15.00;99.90;;;;;;5030274;28;20612;-75
2023/10/16 14:40:51;;;;;;;4.00;2.17;;;15.00;99.90;;;;;;5030884;28;20580;-74
2023/10/16 14:43:17;;;;;;;3.00;2.00;;;15.10;99.90;;;;;;5030810;28;20600;-74
2023/10/16 14:45:47;;;;;;;3.20;1.90;;;15.00;99.90;;;;;;5031017;28;20612;-75
2023/10/16 14:48:18;;;;;;;4.67;2.23;;;15.00;99.90;;;;;;5028940;28;20632;-74
2023/10/16 14:50:47;;;;;;;5.43;2.37;;;15.00;99.90;;;;;;5030473;28;20584;-74
2023/10/16 14:53:13;;;;;;;3.90;2.03;;;15.10;99.90;;;;;;5028962;28;20592;-74
2023/10/16 14:55:40;;;;;;;3.60;2.23;;;15.10;99.90;;;;;;5030957;28;20642;-74
2023/10/16 14:58:06;;;;;;;3.60;2.53;;;15.10;99.90;;;;;;5031171;28;20586;-75
2023/10/16 15:00:41;;;;;;;5.30;1.77;;;15.10;99.90;;;;;;5031499;28;20657;-74
2023/10/16 15:03:11;;;;;;;3.53;2.10;;;15.00;99.90;;;;;;5014536;28;20603;-75
2023/10/16 15:05:39;;;;;;;6.00;2.10;;;15.00;99.90;;;;;;5029643;28;20613;-74
2023/10/16 15:08:12;;;;;;;4.57;2.40;;;15.00;99.90;;;;;;5012617;28;20621;-74